Time;durP1;ratioP1;P1;durP2;ratioP2;P2;SDS_P1;SDS_P2;PMS_P1;PMS_P2;Temp;Humidity;BMP_temperature;BMP_pressure;BME280_temperature;BME280_humidity;BME280_pressure;Samples;Min_cycle;Max_cycle;Signal;HPM_P1;HPM_P2
2023/08/28 00:02:11;;;;;;;5.53;5.22;;;;;;;12.56;100.00;100606.88;6116832;23;20017;-71
2023/08/28 00:04:38;;;;;;;5.88;5.50;;;;;;;12.51;100.00;100602.88;6111072;23;20033;-69
2023/08/28 00:07:04;;;;;;;5.50;5.18;;;;;;;12.12;100.00;100549.94;6116181;23;20017;-71
2023/08/28 00:09:32;;;;;;;5.70;5.40;;;;;;;11.95;100.00;100513.31;6118182;23;20022;-70
2023/08/28 00:11:58;;;;;;;5.85;5.45;;;;;;;12.56;100.00;100616.56;6115283;23;20037;-72
2023/08/28 00:14:24;;;;;;;5.78;5.40;;;;;;;12.03;100.00;100540.00;6118448;23;20535;-70
2023/08/28 00:16:51;;;;;;;6.82;6.30;;;;;;;12.09;100.00;100550.13;6114948;23;20033;-70
2023/08/28 00:19:17;;;;;;;6.22;5.80;;;;;;;12.19;100.00;100560.94;6122065;23;20100;-71
2023/08/28 00:21:44;;;;;;;6.18;5.78;;;;;;;12.06;100.00;100531.91;6091075;23;20028;-71
2023/08/28 00:24:10;;;;;;;6.00;5.60;;;;;;;12.54;100.00;100627.19;6114053;23;20039;-71
2023/08/28 00:26:37;;;;;;;5.75;5.35;;;;;;;12.49;100.00;100610.00;6090184;23;20511;-69
2023/08/28 00:29:04;;;;;;;5.82;5.40;;;;;;;11.77;100.00;100512.59;6123482;23;20088;-71
2023/08/28 00:31:30;;;;;;;6.32;5.72;;;;;;;11.69;100.00;100493.81;6126004;23;20582;-70
2023/08/28 00:33:56;;;;;;;5.90;5.40;;;;;;;12.45;100.00;100624.28;6116709;23;20051;-71
2023/08/28 00:36:23;;;;;;;5.80;5.40;;;;;;;12.15;100.00;100580.50;6087338;23;20022;-71
2023/08/28 00:38:49;;;;;;;6.07;5.68;;;;;;;11.47;100.00;100462.72;6113288;23;20475;-71
2023/08/28 00:41:15;;;;;;;5.75;5.45;;;;;;;12.44;100.00;100623.44;6114830;23;20021;-70
2023/08/28 00:43:42;;;;;;;6.22;5.82;;;;;;;12.41;100.00;100615.75;6096088;23;20036;-71
2023/08/28 00:46:08;;;;;;;5.72;5.40;;;;;;;12.38;100.00;100616.75;6108251;23;20017;-71
2023/08/28 00:48:35;;;;;;;5.40;5.10;;;;;;;12.41;100.00;100602.56;6082097;23;20153;-69
2023/08/28 00:51:03;;;;;;;5.40;5.10;;;;;;;12.37;100.00;100601.91;6116591;23;20013;-71
2023/08/28 00:53:30;;;;;;;5.53;5.22;;;;;;;11.83;100.00;100535.91;6118345;23;20346;-70
2023/08/28 00:55:57;;;;;;;7.15;5.60;;;;;;;11.83;100.00;100561.34;6115168;23;21199;-71
2023/08/28 00:58:23;;;;;;;5.85;5.55;;;;;;;12.27;100.00;100624.47;6094101;23;20025;-71
2023/08/28 01:00:50;;;;;;;5.85;5.45;;;;;;;12.24;100.00;100627.28;6084521;23;20049;-70
2023/08/28 01:03:19;;;;;;;5.63;5.22;;;;;;;11.95;100.00;100579.91;6121200;23;20073;-70
2023/08/28 01:06:08;;;;;;;5.70;5.40;;;;;;;11.78;100.00;100561.59;6110291;23;20624;-71
2023/08/28 01:08:56;;;;;;;5.82;5.43;;;;;;;12.21;100.00;100623.97;6120195;23;20048;-71
2023/08/28 01:11:40;;;;;;;5.72;5.32;;;;;;;12.17;100.00;100615.44;6120390;23;20035;-72
2023/08/28 01:14:24;;;;;;;5.63;5.30;;;;;;;11.95;100.00;100586.94;6113502;23;20475;-71
2023/08/28 01:16:55;;;;;;;6.55;6.05;;;;;;;12.09;100.00;100625.59;6113722;23;20092;-71
2023/08/28 01:19:33;;;;;;;5.40;5.07;;;;;;;12.04;100.00;100622.38;6117589;23;20045;-72
2023/08/28 01:22:28;;;;;;;5.60;5.20;;;;;;;12.03;100.00;100618.03;6091723;23;20096;-72
2023/08/28 01:25:05;;;;;;;5.60;5.30;;;;;;;11.72;100.00;100572.50;6107105;23;20089;-71
2023/08/28 01:27:32;;;;;;;5.90;5.40;;;;;;;11.65;100.00;100572.00;6114064;23;20053;-71
2023/08/28 01:30:09;;;;;;;6.03;5.65;;;;;;;11.48;100.00;100546.69;6080303;23;20556;-71
2023/08/28 01:32:37;;;;;;;5.82;5.32;;;;;;;11.36;100.00;100510.63;6094431;23;20089;-71
2023/08/28 01:35:26;;;;;;;5.25;4.95;;;;;;;11.68;100.00;100584.97;6114098;23;20006;-71
2023/08/28 01:38:19;;;;;;;7.78;5.65;;;;;;;12.04;100.00;100628.47;6088325;23;20013;-71
2023/08/28 01:40:55;;;;;;;5.35;5.05;;;;;;;11.63;100.00;100576.50;6089195;23;20694;-71
2023/08/28 01:43:24;;;;;;;6.38;5.85;;;;;;;11.97;100.00;100630.63;6114901;23;20622;-71
2023/08/28 01:45:51;;;;;;;6.22;5.82;;;;;;;11.36;100.00;100537.75;6088138;23;20021;-71
2023/08/28 01:48:20;;;;;;;6.53;6.00;;;;;;;11.89;100.00;100629.38;6110400;23;20428;-71
2023/08/28 01:50:49;;;;;;;6.55;6.07;;;;;;;11.65;100.00;100587.78;6082308;23;20020;-72
2023/08/28 01:53:16;;;;;;;6.10;5.70;;;;;;;11.65;100.00;100603.56;6113392;23;20267;-70
2023/08/28 01:55:45;;;;;;;5.90;5.50;;;;;;;11.81;100.00;100631.56;6091493;23;20093;-71
2023/08/28 01:58:15;;;;;;;6.53;5.97;;;;;;;11.70;100.00;100601.50;6092270;23;20082;-71
2023/08/28 02:00:41;;;;;;;5.82;5.32;;;;;;;11.45;100.00;100564.44;6115762;23;20027;-71
2023/08/28 02:03:09;;;;;;;5.95;5.45;;;;;;;11.81;100.00;100623.66;6113486;23;20041;-72
2023/08/28 02:05:36;;;;;;;6.32;5.93;;;;;;;11.29;100.00;100541.69;6117841;23;20086;-71
2023/08/28 02:08:04;;;;;;;6.32;5.82;;;;;;;10.90;100.00;100495.75;6106425;23;20029;-72
2023/08/28 02:10:30;;;;;;;6.40;5.32;;;;;;;11.63;100.00;100615.94;6111330;23;20049;-71
2023/08/28 02:12:56;;;;;;;5.82;5.43;;;;;;;11.58;100.00;100628.50;6114164;23;20029;-72
2023/08/28 02:15:23;;;;;;;5.75;5.35;;;;;;;11.26;100.00;100569.91;6112365;23;20084;-71
2023/08/28 02:17:49;;;;;;;5.78;5.38;;;;;;;11.42;100.00;100609.28;6119406;23;20088;-71
2023/08/28 02:20:16;;;;;;;5.80;5.40;;;;;;;11.46;100.00;100614.28;6113445;23;20075;-71
2023/08/28 02:22:42;;;;;;;6.15;5.68;;;;;;;11.17;100.00;100561.63;6090117;23;20040;-71
2023/08/28 02:25:09;;;;;;;6.00;5.55;;;;;;;11.16;100.00;100545.94;6112889;23;20120;-70
2023/08/28 02:27:35;;;;;;;5.90;5.50;;;;;;;11.40;100.00;100606.75;6112429;23;20053;-71
2023/08/28 02:30:02;;;;;;;6.05;5.65;;;;;;;11.14;100.00;100560.94;6109278;23;20020;-70
2023/08/28 02:32:29;;;;;;;5.90;5.50;;;;;;;11.58;100.00;100642.47;6083528;23;20092;-70
2023/08/28 02:34:55;;;;;;;5.95;5.47;;;;;;;11.46;100.00;100619.53;6093100;23;20081;-70
2023/08/28 02:37:24;;;;;;;6.85;6.30;;;;;;;10.36;100.00;100443.66;6110775;23;20089;-70
2023/08/28 02:39:50;;;;;;;5.70;5.38;;;;;;;11.43;100.00;100627.59;6089301;23;20035;-71
2023/08/28 02:42:16;;;;;;;7.22;5.78;;;;;;;11.58;100.00;100662.66;6114091;23;20041;-70
2023/08/28 02:44:43;;;;;;;6.18;5.78;;;;;;;11.53;100.00;100668.19;6113839;23;20036;-71
2023/08/28 02:47:09;;;;;;;6.10;5.60;;;;;;;11.48;100.00;100666.75;6092214;23;20484;-72
2023/08/28 02:49:35;;;;;;;6.45;5.85;;;;;;;11.41;100.00;100674.13;6114266;23;20032;-71
2023/08/28 02:52:02;;;;;;;6.00;5.60;;;;;;;11.17;100.00;100657.97;6109231;23;20048;-71
2023/08/28 02:54:28;;;;;;;5.55;5.25;;;;;;;10.21;100.00;100491.66;6109989;23;20107;-71
2023/08/28 02:56:55;;;;;;;6.13;5.70;;;;;;;10.84;100.00;100602.88;6092366;23;20054;-71
2023/08/28 02:59:21;;;;;;;7.15;5.65;;;;;;;10.78;100.00;100586.56;6107781;23;20014;-71
2023/08/28 03:01:48;;;;;;;6.65;5.95;;;;;;;11.34;100.00;100680.66;6097780;23;20025;-71
2023/08/28 03:04:14;;;;;;;5.78;5.47;;;;;;;11.33;100.00;100690.31;6118005;23;20059;-71
2023/08/28 03:06:40;;;;;;;5.57;5.28;;;;;;;10.71;100.00;100597.47;6112514;23;20021;-71
2023/08/28 03:09:12;;;;;;;6.30;5.80;;;;;;;11.26;100.00;100683.69;6118161;23;20654;-71
2023/08/28 03:11:38;;;;;;;6.00;5.60;;;;;;;11.13;100.00;100665.16;6114428;23;20085;-71
2023/08/28 03:14:05;;;;;;;6.40;5.90;;;;;;;11.22;100.00;100676.94;6116638;23;20028;-71
2023/08/28 03:16:31;;;;;;;5.93;5.50;;;;;;;11.16;100.00;100674.63;6116086;23;20053;-71
2023/08/28 03:18:58;;;;;;;5.93;5.60;;;;;;;11.00;100.00;100661.50;6090551;23;20026;-71
2023/08/28 03:21:27;;;;;;;5.97;5.55;;;;;;;11.16;100.00;100672.00;6116888;23;20066;-72
2023/08/28 03:23:53;;;;;;;6.10;5.60;;;;;;;11.31;100.00;100699.22;6121669;23;20034;-71
2023/08/28 03:26:20;;;;;;;5.90;5.50;;;;;;;11.31;100.00;100704.50;6064152;23;20042;-71
2023/08/28 03:28:46;;;;;;;5.78;5.38;;;;;;;11.28;100.00;100713.38;6114720;23;20566;-71
2023/08/28 03:31:13;;;;;;;5.90;5.50;;;;;;;11.09;100.00;100696.94;6109371;23;20017;-71
2023/08/28 03:33:39;;;;;;;6.00;5.60;;;;;;;10.27;100.00;100570.03;6072920;23;20062;-71
2023/08/28 03:36:06;;;;;;;6.15;5.65;;;;;;;11.14;100.00;100705.41;6115662;23;20029;-72
2023/08/28 03:38:32;;;;;;;5.95;5.63;;;;;;;11.22;100.00;100713.69;6095922;23;20027;-71
2023/08/28 03:40:59;;;;;;;5.70;5.30;;;;;;;11.36;100.00;100720.84;6116155;23;20038;-71
2023/08/28 03:43:25;;;;;;;5.97;5.57;;;;;;;11.35;100.00;100725.25;6115427;23;20029;-71
2023/08/28 03:45:51;;;;;;;5.70;5.30;;;;;;;11.02;100.00;100682.44;6095574;23;20029;-71
2023/08/28 03:48:18;;;;;;;5.63;5.32;;;;;;;10.51;100.00;100607.25;6117217;23;20021;-70
2023/08/28 03:50:45;;;;;;;5.53;5.22;;;;;;;10.74;100.00;100652.41;6104278;23;20089;-70
2023/08/28 03:53:12;;;;;;;5.60;5.25;;;;;;;11.24;100.00;100730.22;6118421;23;20049;-70
2023/08/28 03:55:38;;;;;;;5.47;5.15;;;;;;;11.12;100.00;100720.38;6098599;23;20018;-70
2023/08/28 03:58:05;;;;;;;5.72;5.22;;;;;;;11.11;100.00;100705.56;6117342;23;20546;-70
2023/08/28 04:00:32;;;;;;;5.60;5.25;;;;;;;11.09;100.00;100689.06;6116782;23;20352;-70
2023/08/28 04:02:59;;;;;;;5.90;5.40;;;;;;;10.72;100.00;100639.38;6114579;23;20025;-70
2023/08/28 04:05:28;;;;;;;6.32;5.82;;;;;;;10.74;100.00;100650.66;6098776;23;20025;-70
2023/08/28 04:07:55;;;;;;;5.88;5.47;;;;;;;11.27;100.00;100724.81;6115731;23;20025;-73
2023/08/28 04:10:21;;;;;;;6.30;5.80;;;;;;;11.33;100.00;100718.38;6115723;23;20093;-70
2023/08/28 04:12:48;;;;;;;7.57;5.20;;;;;;;11.33;100.00;100713.97;6120220;23;20147;-70
2023/08/28 04:15:14;;;;;;;6.63;6.22;;;;;;;11.26;100.00;100701.25;6110273;23;20017;-72
2023/08/28 04:17:40;;;;;;;5.75;5.25;;;;;;;10.97;100.00;100680.91;6111353;23;20092;-71
2023/08/28 04:20:12;;;;;;;5.10;4.80;;;;;;;11.32;100.00;100714.06;6115520;23;19997;-71
2023/08/28 04:22:43;;;;;;;6.70;5.53;;;;;;;11.33;100.00;100718.38;6112973;23;20025;-71
2023/08/28 04:25:11;;;;;;;5.43;5.03;;;;;;;11.28;100.00;100704.66;6117779;23;20018;-71
2023/08/28 04:27:39;;;;;;;6.00;5.60;;;;;;;11.08;100.00;100664.53;6114810;23;20767;-70
2023/08/28 04:30:07;;;;;;;5.50;5.20;;;;;;;11.23;100.00;100698.81;6114836;23;20020;-71
2023/08/28 04:32:34;;;;;;;5.75;5.35;;;;;;;11.21;100.00;100691.00;6067231;23;20033;-71
2023/08/28 04:35:00;;;;;;;5.60;5.20;;;;;;;10.66;100.00;100608.19;6115186;23;20017;-70
2023/08/28 04:37:27;;;;;;;5.50;5.20;;;;;;;11.23;100.00;100698.81;6116040;23;20045;-71
2023/08/28 04:39:54;;;;;;;5.30;5.00;;;;;;;11.22;100.00;100703.19;6117660;23;20440;-70
2023/08/28 04:42:20;;;;;;;5.30;5.00;;;;;;;10.91;100.00;100656.75;6070685;23;20525;-70
2023/08/28 04:44:47;;;;;;;5.32;5.00;;;;;;;10.88;100.00;100655.13;6090810;23;20108;-71
2023/08/28 04:47:13;;;;;;;5.60;5.20;;;;;;;10.89;100.00;100663.88;6117258;23;20049;-71
2023/08/28 04:49:40;;;;;;;5.65;5.22;;;;;;;11.03;100.00;100692.03;6114428;23;20026;-71
2023/08/28 04:52:07;;;;;;;5.80;5.47;;;;;;;10.48;100.00;100604.78;6119295;23;20092;-70
2023/08/28 04:54:34;;;;;;;5.43;5.03;;;;;;;11.01;100.00;100686.00;6114145;23;20097;-70
2023/08/28 04:57:00;;;;;;;5.30;4.90;;;;;;;11.04;100.00;100683.19;6110672;23;20118;-70
2023/08/28 04:59:27;;;;;;;5.32;5.03;;;;;;;10.98;100.00;100669.47;6111512;23;20032;-70
2023/08/28 05:01:54;;;;;;;5.10;4.80;;;;;;;10.74;100.00;100637.53;6113084;23;20041;-70
2023/08/28 05:04:20;;;;;;;5.35;4.95;;;;;;;11.18;100.00;100705.16;6112386;23;20023;-69
2023/08/28 05:06:47;;;;;;;5.68;5.30;;;;;;;10.58;100.00;100606.00;6115388;23;20025;-72
2023/08/28 05:09:14;;;;;;;5.72;5.32;;;;;;;11.30;100.00;100702.78;6079983;23;20085;-71
2023/08/28 05:11:41;;;;;;;5.95;5.55;;;;;;;11.23;100.00;100706.69;6116025;23;20040;-70
2023/08/28 05:14:07;;;;;;;6.57;5.70;;;;;;;10.74;100.00;100620.91;6110849;23;20033;-70
2023/08/28 05:16:33;;;;;;;6.10;5.70;;;;;;;10.73;100.00;100616.59;6081692;23;20014;-71
2023/08/28 05:19:00;;;;;;;9.02;5.50;;;;;;;11.06;100.00;100674.28;6114032;23;20716;-70
2023/08/28 05:21:26;;;;;;;5.43;5.13;;;;;;;11.32;100.00;100721.94;6112079;23;20009;-70
2023/08/28 05:23:53;;;;;;;5.85;5.35;;;;;;;11.05;100.00;100667.34;6110066;23;20054;-70
2023/08/28 05:26:19;;;;;;;5.45;5.15;;;;;;;11.34;100.00;100699.03;6113099;23;20013;-70
2023/08/28 05:28:46;;;;;;;6.10;5.60;;;;;;;11.34;100.00;100693.78;6082968;23;20083;-70
2023/08/28 05:31:12;;;;;;;6.20;5.70;;;;;;;11.67;100.00;100742.81;6091653;23;20025;-70
2023/08/28 05:33:38;;;;;;;5.80;5.40;;;;;;;11.23;100.00;100672.53;6067864;23;20025;-70
2023/08/28 05:36:05;;;;;;;5.78;5.38;;;;;;;12.05;100.00;100751.16;6117429;23;20068;-70
2023/08/28 05:38:31;;;;;;;7.63;5.35;;;;;;;12.12;100.00;100744.59;6109970;23;20104;-71
2023/08/28 05:40:58;;;;;;;6.00;5.60;;;;;;;12.65;100.00;100771.34;6109922;23;20022;-70
2023/08/28 05:43:24;;;;;;;6.15;5.75;;;;;;;13.08;100.00;100781.91;6112456;23;20014;-70
2023/08/28 05:45:50;;;;;;;6.43;6.03;;;;;;;12.83;100.00;100703.56;6109925;23;20029;-70
2023/08/28 05:48:17;;;;;;;6.30;5.90;;;;;;;13.47;100.00;100761.97;6117297;23;20873;-70
2023/08/28 05:50:44;;;;;;;5.80;5.40;;;;;;;12.20;100.00;100546.84;6085850;23;20009;-70
2023/08/28 05:53:11;;;;;;;6.10;5.70;;;;;;;13.41;100.00;100725.44;6110624;23;20132;-70
2023/08/28 05:55:37;;;;;;;7.00;6.30;;;;;;;13.16;100.00;100671.59;6082912;23;20041;-70
2023/08/28 05:58:04;;;;;;;6.03;5.63;;;;;;;13.45;100.00;100705.00;6112717;23;20045;-70
2023/08/28 06:00:30;;;;;;;5.90;5.50;;;;;;;13.48;100.00;100707.44;6114255;23;20089;-70
2023/08/28 06:02:57;;;;;;;5.82;5.43;;;;;;;13.11;100.00;100642.09;6118666;23;20017;-71
2023/08/28 06:05:24;;;;;;;6.38;5.90;;;;;;;13.41;100.00;100687.69;6111801;23;20028;-69
2023/08/28 06:07:53;;;;;;;6.55;5.93;;;;;;;13.41;100.00;100669.22;6087680;23;20022;-69
2023/08/28 06:10:19;;;;;;;6.15;5.70;;;;;;;13.59;100.00;100683.88;6091565;23;20034;-70
2023/08/28 06:12:47;;;;;;;5.70;5.40;;;;;;;13.76;100.00;100680.13;6109168;23;20025;-69
2023/08/28 06:15:20;;;;;;;6.10;5.70;;;;;;;13.17;100.00;100565.28;6079708;23;20018;-69
2023/08/28 06:17:48;;;;;;;5.93;5.60;;;;;;;13.15;100.00;100542.63;6119625;23;20072;-69
2023/08/28 06:20:15;;;;;;;6.10;5.70;;;;;;;14.10;100.00;100680.53;6116983;23;20412;-69
2023/08/28 06:22:45;;;;;;;6.40;5.90;;;;;;;14.07;100.00;100664.88;6090412;23;20032;-69
2023/08/28 06:25:11;;;;;;;6.70;6.20;;;;;;;14.33;100.00;100671.88;6110169;23;20067;-70
2023/08/28 06:27:38;;;;;;;6.38;5.88;;;;;;;14.42;100.00;100656.38;6088721;23;20099;-69
2023/08/28 06:30:06;;;;;;;5.90;5.50;;;;;;;14.53;100.00;100648.53;6115214;23;20018;-70
2023/08/28 06:32:33;;;;;;;10.38;6.18;;;;;;;14.19;100.00;100555.00;6089086;23;20029;-70
2023/08/28 06:34:59;;;;;;;9.02;5.90;;;;;;;14.40;100.00;100579.06;6111313;23;20024;-69
2023/08/28 06:37:26;;;;;;;6.53;6.10;;;;;;;13.87;100.00;100463.94;6111736;23;20022;-69
2023/08/28 06:39:53;;;;;;;6.40;6.00;;;;;;;14.76;100.00;100587.03;6113310;23;20102;-69
2023/08/28 06:42:19;;;;;;;6.22;5.80;;;;;;;14.89;100.00;100572.94;6119676;23;20038;-69
2023/08/28 06:44:49;;;;;;;6.00;5.60;;;;;;;15.08;100.00;100575.09;6085340;23;20100;-69
2023/08/28 06:47:15;;;;;;;6.65;6.13;;;;;;;14.95;100.00;100530.22;6110164;23;20033;-69
2023/08/28 06:49:41;;;;;;;6.50;6.00;;;;;;;15.11;100.00;100540.50;6097571;23;20022;-69
2023/08/28 06:52:09;;;;;;;6.45;6.05;;;;;;;15.47;100.00;100559.88;6114366;23;20036;-68
2023/08/28 06:54:36;;;;;;;5.95;5.55;;;;;;;15.56;100.00;100562.69;6098122;23;20032;-69
2023/08/28 06:57:17;;;;;;;6.32;5.93;;;;;;;15.19;100.00;100479.97;6115520;23;20020;-69
2023/08/28 06:59:43;;;;;;;6.68;6.28;;;;;;;15.56;100.00;100523.00;6114497;23;20092;-69
2023/08/28 07:02:10;;;;;;;6.65;6.10;;;;;;;15.73;100.00;100528.84;6122642;23;20685;-69
2023/08/28 07:04:36;;;;;;;6.43;5.93;;;;;;;15.92;100.00;100530.94;6117934;23;20077;-69
2023/08/28 07:07:03;;;;;;;6.15;5.78;;;;;;;15.53;97.79;100422.72;6114743;23;20080;-69
2023/08/28 07:09:29;;;;;;;6.40;6.00;;;;;;;15.79;95.26;100442.84;6117397;23;20641;-69
2023/08/28 07:11:56;;;;;;;6.07;5.68;;;;;;;15.85;94.34;100445.03;6115000;23;20022;-69
2023/08/28 07:14:22;;;;;;;6.47;6.05;;;;;;;15.80;95.61;100460.44;6119474;23;20204;-69
2023/08/28 07:16:49;;;;;;;6.03;5.53;;;;;;;14.82;95.29;100297.78;6114062;23;20021;-69
2023/08/28 07:19:15;;;;;;;6.13;5.65;;;;;;;15.97;95.47;100470.53;6119064;23;20038;-70
2023/08/28 07:21:42;;;;;;;6.35;5.90;;;;;;;15.98;95.09;100460.81;6099418;23;20005;-70
2023/08/28 07:24:09;;;;;;;6.20;5.80;;;;;;;15.66;94.66;100393.53;6116018;23;20444;-70
2023/08/28 07:26:35;;;;;;;5.88;5.57;;;;;;;16.23;nan;100475.56;6116951;23;20013;-70
2023/08/28 07:29:02;;;;;;;6.22;5.82;;;;;;;16.29;93.61;100446.78;6099835;23;20029;-70
2023/08/28 07:31:28;;;;;;;9.95;5.95;;;;;;;16.22;92.78;100415.66;6112622;23;20021;-70
2023/08/28 07:33:55;;;;;;;6.35;5.95;;;;;;;16.22;92.77;100394.47;6112572;23;20041;-70
2023/08/28 07:36:23;;;;;;;6.50;6.03;;;;;;;16.76;92.52;100454.50;6115244;23;20499;-70
2023/08/28 07:38:50;;;;;;;9.15;6.22;;;;;;;16.68;89.81;100375.63;6097244;23;20057;-70
2023/08/28 07:41:18;;;;;;;10.32;6.13;;;;;;;17.08;89.16;100405.97;6095270;23;20088;-69
2023/08/28 07:43:45;;;;;;;8.00;5.88;;;;;;;17.23;88.16;100409.13;6084359;23;20143;-70
2023/08/28 07:46:12;;;;;;;6.50;6.10;;;;;;;17.44;87.34;100401.97;6094444;23;20406;-70
2023/08/28 07:48:39;;;;;;;6.95;6.35;;;;;;;17.49;86.66;100375.06;6118015;23;20029;-70
2023/08/28 07:51:06;;;;;;;8.02;6.68;;;;;;;17.42;85.98;100337.59;6112029;23;20480;-70
2023/08/28 07:53:32;;;;;;;6.90;6.40;;;;;;;17.92;83.59;100342.97;6117951;23;20074;-71
2023/08/28 07:56:00;;;;;;;6.63;6.07;;;;;;;17.95;82.46;100294.06;6097826;23;20048;-70
2023/08/28 07:58:27;;;;;;;6.85;6.25;;;;;;;18.32;81.22;100304.00;6116250;23;20488;-70
2023/08/28 08:00:53;;;;;;;6.75;6.15;;;;;;;18.37;80.88;100311.56;6117414;23;20348;-70
2023/08/28 08:03:20;;;;;;;7.22;6.72;;;;;;;18.11;81.63;100285.56;6112106;23;20030;-69
2023/08/28 08:05:47;;;;;;;7.35;6.60;;;;;;;17.33;81.98;100179.25;6072011;23;20097;-70
2023/08/28 08:08:13;;;;;;;6.97;6.50;;;;;;;18.29;82.90;100346.78;6118822;23;20669;-70
2023/08/28 08:10:40;;;;;;;7.00;6.53;;;;;;;18.16;82.68;100311.69;6092291;23;20026;-70
2023/08/28 08:13:06;;;;;;;7.20;6.60;;;;;;;18.22;80.72;100264.19;6117698;23;20028;-70
2023/08/28 08:15:34;;;;;;;7.30;6.80;;;;;;;18.65;80.22;100320.50;6117215;23;20487;-70
2023/08/28 08:18:00;;;;;;;7.07;6.57;;;;;;;18.78;79.63;100314.88;6114628;23;20468;-70
2023/08/28 08:20:27;;;;;;;6.72;6.22;;;;;;;18.25;79.15;100200.13;6079867;23;20085;-69
2023/08/28 08:22:53;;;;;;;6.82;6.32;;;;;;;18.72;78.52;100258.66;6114103;23;20066;-70
2023/08/28 08:25:22;;;;;;;7.38;6.78;;;;;;;18.81;78.02;100250.84;6115550;23;20028;-70
2023/08/28 08:27:49;;;;;;;7.00;6.40;;;;;;;18.95;76.16;100214.97;6119380;23;20036;-70
2023/08/28 08:30:16;;;;;;;7.47;6.78;;;;;;;19.00;76.70;100252.56;6084841;23;20088;-69
2023/08/28 08:32:43;;;;;;;7.82;6.97;;;;;;;19.11;76.48;100274.50;6115118;23;20025;-72
2023/08/28 08:35:11;;;;;;;6.60;6.20;;;;;;;19.16;77.29;100310.47;6123273;23;20012;-70
2023/08/28 08:37:40;;;;;;;8.00;7.20;;;;;;;18.39;76.02;100174.13;6090600;23;20013;-70
2023/08/28 08:40:13;;;;;;;12.02;6.95;;;;;;;19.32;75.72;100311.56;6120419;23;20062;-70
2023/08/28 08:42:40;;;;;;;6.90;6.50;;;;;;;19.84;75.21;100329.66;6093806;23;20029;-70
2023/08/28 08:45:08;;;;;;;7.70;6.45;;;;;;;20.22;72.81;100285.09;6110146;23;20021;-69
2023/08/28 08:47:35;;;;;;;7.60;7.00;;;;;;;19.95;70.87;100160.84;6112621;23;20024;-70
2023/08/28 08:50:05;;;;;;;7.43;6.78;;;;;;;20.62;70.62;100242.97;6114702;23;20026;-70
2023/08/28 08:52:35;;;;;;;7.20;6.60;;;;;;;20.97;69.56;100238.47;6121189;23;20144;-70
2023/08/28 08:55:11;;;;;;;6.80;6.30;;;;;;;21.31;67.77;100209.97;6108931;23;20051;-70
2023/08/28 08:57:42;;;;;;;7.72;7.13;;;;;;;20.87;65.60;100081.25;6108936;23;20084;-70
2023/08/28 09:00:17;;;;;;;7.50;7.00;;;;;;;20.71;65.73;100104.19;6113412;23;20027;-69
2023/08/28 09:02:46;;;;;;;6.07;5.70;;;;;;;20.89;67.88;100197.47;6111773;23;20096;-70
2023/08/28 09:05:14;;;;;;;6.50;6.10;;;;;;;20.89;66.61;100162.78;6114360;23;20021;-72
2023/08/28 09:07:43;;;;;;;6.82;6.22;;;;;;;20.74;65.20;100104.88;6093032;23;20014;-70
2023/08/28 09:10:10;;;;;;;6.25;5.80;;;;;;;20.35;66.22;100111.50;6110304;23;20104;-71
2023/08/28 09:12:36;;;;;;;6.68;6.18;;;;;;;20.77;66.50;100177.41;6112138;23;20082;-70
2023/08/28 09:15:04;;;;;;;6.30;5.90;;;;;;;20.00;66.79;100123.06;6111844;23;20032;-70
2023/08/28 09:17:31;;;;;;;5.95;5.65;;;;;;;19.85;68.09;100170.75;6117756;23;20025;-70
2023/08/28 09:20:08;;;;;;;6.43;5.93;;;;;;;20.29;68.23;100237.38;6093967;23;20062;-70
2023/08/28 09:22:34;;;;;;;6.07;5.78;;;;;;;20.23;68.41;100228.16;6116594;23;20019;-70
2023/08/28 09:25:06;;;;;;;6.53;5.88;;;;;;;20.16;68.78;100261.72;6095349;23;20461;-70
2023/08/28 09:27:40;;;;;;;6.05;5.75;;;;;;;20.11;69.99;100283.50;6117324;23;20026;-70
2023/08/28 09:30:08;;;;;;;6.03;5.70;;;;;;;20.13;68.40;100235.41;6113049;23;20134;-70
2023/08/28 09:32:34;;;;;;;6.07;5.78;;;;;;;20.46;68.92;100286.28;6111760;23;20033;-69
2023/08/28 09:35:06;;;;;;;6.05;5.75;;;;;;;20.40;67.64;100210.44;6111850;23;20037;-70
2023/08/28 09:37:32;;;;;;;6.53;6.13;;;;;;;19.98;67.38;100154.34;6110592;23;20679;-70
2023/08/28 09:39:59;;;;;;;6.43;6.00;;;;;;;20.73;67.03;100234.72;6117063;23;20029;-70
2023/08/28 09:42:26;;;;;;;5.97;5.57;;;;;;;20.83;66.81;100229.28;6110461;23;20057;-70
2023/08/28 09:44:52;;;;;;;6.90;6.43;;;;;;;20.91;66.09;100222.13;6092200;23;20515;-70
2023/08/28 09:47:22;;;;;;;6.20;5.90;;;;;;;20.76;65.37;100161.53;6086103;23;20080;-70
2023/08/28 09:49:51;;;;;;;6.30;5.90;;;;;;;21.00;65.01;100183.00;6113464;23;20465;-70
2023/08/28 09:52:25;;;;;;;6.10;5.70;;;;;;;20.99;63.98;100138.66;6089201;23;20704;-70
2023/08/28 09:55:04;;;;;;;8.85;6.10;;;;;;;20.63;64.17;100111.34;6109871;23;20029;-70
2023/08/28 09:57:33;;;;;;;6.40;6.00;;;;;;;20.11;64.17;100040.25;6081956;23;20507;-70
2023/08/28 10:00:00;;;;;;;6.30;5.72;;;;;;;21.23;64.11;100193.94;6114426;23;20623;-70
2023/08/28 10:02:30;;;;;;;6.00;5.70;;;;;;;20.77;62.61;100064.53;6086847;23;20073;-70
2023/08/28 10:04:59;;;;;;;6.35;5.80;;;;;;;21.55;62.72;100167.50;6112231;23;20033;-70
2023/08/28 10:07:26;;;;;;;6.50;6.05;;;;;;;21.52;62.78;100174.00;6113106;23;20506;-70
2023/08/28 10:09:57;;;;;;;6.30;6.00;;;;;;;21.35;62.05;100130.41;6111820;23;20025;-70
2023/08/28 10:12:26;;;;;;;6.30;5.90;;;;;;;21.71;61.02;100133.66;6084664;23;20034;-70
2023/08/28 10:14:54;;;;;;;6.70;6.30;;;;;;;21.41;60.88;100054.16;6111001;23;20037;-72
2023/08/28 10:17:25;;;;;;;6.60;6.10;;;;;;;21.14;63.02;100133.50;6113137;23;20029;-70
2023/08/28 10:19:58;;;;;;;6.35;5.85;;;;;;;21.40;63.27;100224.16;6102089;23;20216;-70
2023/08/28 10:22:25;;;;;;;6.60;6.20;;;;;;;21.07;63.00;100111.16;6112937;23;20017;-70
2023/08/28 10:24:56;;;;;;;6.53;6.10;;;;;;;21.12;61.21;100055.47;6109223;23;20022;-70
2023/08/28 10:27:23;;;;;;;7.18;6.50;;;;;;;20.77;62.32;100104.53;6113810;23;20369;-70
2023/08/28 10:29:50;;;;;;;5.97;5.68;;;;;;;20.98;61.74;100101.44;6115951;23;20099;-70
2023/08/28 10:32:18;;;;;;;6.80;6.20;;;;;;;21.30;62.23;100165.56;6114197;23;20686;-70
2023/08/28 10:34:46;;;;;;;6.40;6.05;;;;;;;21.53;61.77;100191.72;6058526;23;20021;-70
2023/08/28 10:37:13;;;;;;;6.63;6.22;;;;;;;21.39;61.03;100107.72;6083524;23;20025;-72
2023/08/28 10:39:58;;;;;;;6.20;5.90;;;;;;;21.98;60.12;100139.66;6111871;23;20055;-70
2023/08/28 10:42:27;;;;;;;6.75;6.28;;;;;;;22.09;59.79;100122.41;6112632;23;20519;-70
2023/08/28 10:44:54;;;;;;;6.63;6.22;;;;;;;22.18;58.55;100110.72;6112397;23;20037;-70
2023/08/28 10:47:20;;;;;;;6.13;5.82;;;;;;;22.34;58.87;100135.78;6112499;23;20053;-70
2023/08/28 10:49:47;;;;;;;6.47;6.07;;;;;;;22.33;58.35;100081.50;6079144;23;20037;-70
2023/08/28 10:52:18;;;;;;;6.18;5.72;;;;;;;22.17;57.43;100026.22;6110579;23;20088;-70
2023/08/28 10:54:45;;;;;;;5.93;5.63;;;;;;;22.54;58.13;100150.44;6090056;23;20030;-70
2023/08/28 10:57:27;;;;;;;6.50;6.10;;;;;;;22.30;57.21;100031.88;6111218;23;20026;-69
2023/08/28 10:59:55;;;;;;;6.10;5.80;;;;;;;22.13;55.70;99971.44;6109040;23;20026;-70
2023/08/28 11:02:21;;;;;;;6.40;5.93;;;;;;;22.01;55.71;99935.41;6090106;23;20025;-70
2023/08/28 11:04:48;;;;;;;6.05;5.75;;;;;;;21.42;56.07;99896.50;6113227;23;20029;-69
2023/08/28 11:07:20;;;;;;;6.30;6.00;;;;;;;21.43;57.07;100013.00;6083159;23;20041;-68
2023/08/28 11:09:48;;;;;;;6.80;6.30;;;;;;;21.41;58.39;100119.06;6095380;23;20014;-71
2023/08/28 11:12:15;;;;;;;6.03;5.53;;;;;;;22.11;57.48;100166.69;6111218;23;20104;-68
2023/08/28 11:14:50;;;;;;;6.07;5.68;;;;;;;22.17;58.04;100194.59;6112062;23;20080;-71
2023/08/28 11:17:21;;;;;;;6.43;5.82;;;;;;;22.60;57.60;100216.63;6108080;23;20025;-69
2023/08/28 11:19:56;;;;;;;6.40;6.00;;;;;;;22.47;55.08;100037.16;6085039;23;20044;-69
2023/08/28 11:22:33;;;;;;;6.70;6.20;;;;;;;22.21;56.56;100091.69;6067134;23;20053;-69
2023/08/28 11:25:02;;;;;;;6.10;5.80;;;;;;;22.47;56.56;100120.91;6095119;23;20049;-69